sensor_id;sensor_type;location;lat;lon;timestamp;temperature;humidity
57088;DHT22;42965;52.846;6.614;2022-09-28T00:01:12;8.40;99.90
57088;DHT22;42965;52.846;6.614;2022-09-28T00:03:39;8.40;99.90
57088;DHT22;42965;52.846;6.614;2022-09-28T00:06:07;8.40;99.90
57088;DHT22;42965;52.846;6.614;2022-09-28T00:08:34;8.40;99.90
57088;DHT22;42965;52.846;6.614;2022-09-28T00:11:01;8.40;99.90
57088;DHT22;42965;52.846;6.614;2022-09-28T00:13:28;8.40;99.90
57088;DHT22;42965;52.846;6.614;2022-09-28T00:16:05;8.30;99.90
57088;DHT22;42965;52.846;6.614;2022-09-28T00:18:32;8.40;99.90
57088;DHT22;42965;52.846;6.614;2022-09-28T00:21:03;8.40;99.90
57088;DHT22;42965;52.846;6.614;2022-09-28T00:23:31;8.40;99.90
57088;DHT22;42965;52.846;6.614;2022-09-28T00:26:02;8.40;99.90
57088;DHT22;42965;52.846;6.614;2022-09-28T00:28:28;8.40;99.90
57088;DHT22;42965;52.846;6.614;2022-09-28T00:30:57;8.40;99.90
57088;DHT22;42965;52.846;6.614;2022-09-28T00:33:23;8.40;99.90
57088;DHT22;42965;52.846;6.614;2022-09-28T00:35:57;8.40;99.90
57088;DHT22;42965;52.846;6.614;2022-09-28T00:38:27;8.40;99.90
57088;DHT22;42965;52.846;6.614;2022-09-28T00:40:54;8.40;99.90
57088;DHT22;42965;52.846;6.614;2022-09-28T00:43:22;8.40;99.90
57088;DHT22;42965;52.846;6.614;2022-09-28T00:45:55;8.40;99.90
57088;DHT22;42965;52.846;6.614;2022-09-28T00:48:26;8.40;99.90
57088;DHT22;42965;52.846;6.614;2022-09-28T00:50:54;8.40;99.90
57088;DHT22;42965;52.846;6.614;2022-09-28T00:53:25;8.40;99.90
57088;DHT22;42965;52.846;6.614;2022-09-28T00:55:54;8.40;99.90
57088;DHT22;42965;52.846;6.614;2022-09-28T00:58:31;8.40;99.90
57088;DHT22;42965;52.846;6.614;2022-09-28T01:00:58;8.40;99.90
57088;DHT22;42965;52.846;6.614;2022-09-28T01:03:25;8.50;99.90
57088;DHT22;42965;52.846;6.614;2022-09-28T01:05:55;8.50;99.90
57088;DHT22;42965;52.846;6.614;2022-09-28T01:08:25;8.50;99.90
57088;DHT22;42965;52.846;6.614;2022-09-28T01:10:52;8.50;99.90
57088;DHT22;42965;52.846;6.614;2022-09-28T01:13:19;8.50;99.90
57088;DHT22;42965;52.846;6.614;2022-09-28T01:16:22;8.50;99.90
57088;DHT22;42965;52.846;6.614;2022-09-28T01:24:47;8.50;99.90
57088;DHT22;42965;52.846;6.614;2022-09-28T01:30:04;8.50;99.90
57088;DHT22;42965;52.846;6.614;2022-09-28T01:33:07;8.50;99.90
57088;DHT22;42965;52.846;6.614;2022-09-28T01:36:06;8.50;99.90
57088;DHT22;42965;52.846;6.614;2022-09-28T01:39:01;8.40;99.90
57088;DHT22;42965;52.846;6.614;2022-09-28T01:41:31;8.40;99.90
57088;DHT22;42965;52.846;6.614;2022-09-28T01:44:05;8.30;99.90
57088;DHT22;42965;52.846;6.614;2022-09-28T01:46:38;8.30;99.90
57088;DHT22;42965;52.846;6.614;2022-09-28T01:49:17;8.30;99.90
57088;DHT22;42965;52.846;6.614;2022-09-28T01:52:09;8.20;99.90
57088;DHT22;42965;52.846;6.614;2022-09-28T01:57:20;8.10;99.90
57088;DHT22;42965;52.846;6.614;2022-09-28T02:00:04;8.00;99.90
57088;DHT22;42965;52.846;6.614;2022-09-28T02:02:53;8.00;99.90
57088;DHT22;42965;52.846;6.614;2022-09-28T02:05:34;7.90;99.90
57088;DHT22;42965;52.846;6.614;2022-09-28T02:08:07;7.90;99.90
57088;DHT22;42965;52.846;6.614;2022-09-28T02:10:46;7.90;99.90
57088;DHT22;42965;52.846;6.614;2022-09-28T02:13:27;8.00;99.90
57088;DHT22;42965;52.846;6.614;2022-09-28T02:16:00;8.00;99.90
57088;DHT22;42965;52.846;6.614;2022-09-28T02:18:27;8.00;99.90
57088;DHT22;42965;52.846;6.614;2022-09-28T02:21:10;8.10;99.90
57088;DHT22;42965;52.846;6.614;2022-09-28T02:23:39;8.00;99.90
57088;DHT22;42965;52.846;6.614;2022-09-28T02:26:10;8.10;99.90
57088;DHT22;42965;52.846;6.614;2022-09-28T02:28:39;8.10;99.90
57088;DHT22;42965;52.846;6.614;2022-09-28T02:31:06;8.20;99.90
57088;DHT22;42965;52.846;6.614;2022-09-28T02:33:35;8.20;99.90
57088;DHT22;42965;52.846;6.614;2022-09-28T02:36:03;8.30;99.90
57088;DHT22;42965;52.846;6.614;2022-09-28T02:38:35;8.30;99.90
57088;DHT22;42965;52.846;6.614;2022-09-28T02:41:06;8.30;99.90
57088;DHT22;42965;52.846;6.614;2022-09-28T02:43:40;8.30;99.90
57088;DHT22;42965;52.846;6.614;2022-09-28T02:49:22;8.30;99.90
57088;DHT22;42965;52.846;6.614;2022-09-28T03:01:11;8.30;99.90
57088;DHT22;42965;52.846;6.614;2022-09-28T03:03:51;8.30;99.90
57088;DHT22;42965;52.846;6.614;2022-09-28T03:06:28;8.30;99.90
57088;DHT22;42965;52.846;6.614;2022-09-28T03:09:08;8.30;99.90
57088;DHT22;42965;52.846;6.614;2022-09-28T03:11:46;8.30;99.90
57088;DHT22;42965;52.846;6.614;2022-09-28T03:14:14;8.30;99.90
57088;DHT22;42965;52.846;6.614;2022-09-28T03:16:53;8.30;99.90
57088;DHT22;42965;52.846;6.614;2022-09-28T03:19:23;8.30;99.90
57088;DHT22;42965;52.846;6.614;2022-09-28T03:21:51;8.20;99.90
57088;DHT22;42965;52.846;6.614;2022-09-28T03:24:17;8.20;99.90
57088;DHT22;42965;52.846;6.614;2022-09-28T03:26:43;8.10;99.90
57088;DHT22;42965;52.846;6.614;2022-09-28T03:29:11;8.10;99.90
57088;DHT22;42965;52.846;6.614;2022-09-28T03:31:38;8.00;99.90
57088;DHT22;42965;52.846;6.614;2022-09-28T03:34:04;8.00;99.90
57088;DHT22;42965;52.846;6.614;2022-09-28T03:36:30;8.00;99.90
57088;DHT22;42965;52.846;6.614;2022-09-28T03:38:57;8.00;99.90
57088;DHT22;42965;52.846;6.614;2022-09-28T03:41:25;8.00;99.90
57088;DHT22;42965;52.846;6.614;2022-09-28T03:43:52;8.00;99.90
57088;DHT22;42965;52.846;6.614;2022-09-28T03:46:21;8.00;99.90
57088;DHT22;42965;52.846;6.614;2022-09-28T03:48:50;7.90;99.90
57088;DHT22;42965;52.846;6.614;2022-09-28T03:51:19;7.90;99.90
57088;DHT22;42965;52.846;6.614;2022-09-28T03:53:45;7.90;99.90
57088;DHT22;42965;52.846;6.614;2022-09-28T03:56:13;7.90;99.90
57088;DHT22;42965;52.846;6.614;2022-09-28T03:58:40;7.90;99.90
57088;DHT22;42965;52.846;6.614;2022-09-28T04:01:10;7.90;99.90
57088;DHT22;42965;52.846;6.614;2022-09-28T04:03:41;7.90;99.90
57088;DHT22;42965;52.846;6.614;2022-09-28T04:06:07;7.90;99.90
57088;DHT22;42965;52.846;6.614;2022-09-28T04:08:34;7.90;99.90
57088;DHT22;42965;52.846;6.614;2022-09-28T04:11:00;7.90;99.90
57088;DHT22;42965;52.846;6.614;2022-09-28T04:13:28;7.90;99.90
57088;DHT22;42965;52.846;6.614;2022-09-28T04:15:56;7.90;99.90
57088;DHT22;42965;52.846;6.614;2022-09-28T04:18:24;8.00;99.90
57088;DHT22;42965;52.846;6.614;2022-09-28T04:21:17;8.00;99.90
57088;DHT22;42965;52.846;6.614;2022-09-28T04:23:57;8.00;99.90
57088;DHT22;42965;52.846;6.614;2022-09-28T04:26:26;8.00;99.90
57088;DHT22;42965;52.846;6.614;2022-09-28T04:28:55;8.00;99.90
57088;DHT22;42965;52.846;6.614;2022-09-28T04:31:48;8.10;99.90
57088;DHT22;42965;52.846;6.614;2022-09-28T04:34:22;8.10;99.90
57088;DHT22;42965;52.846;6.614;2022-09-28T04:36:49;8.00;99.90
57088;DHT22;42965;52.846;6.614;2022-09-28T04:39:17;8.00;99.90
57088;DHT22;42965;52.846;6.614;2022-09-28T04:41:54;8.00;99.90
57088;DHT22;42965;52.846;6.614;2022-09-28T04:44:20;8.00;99.90
57088;DHT22;42965;52.846;6.614;2022-09-28T04:46:49;7.90;99.90
57088;DHT22;42965;52.846;6.614;2022-09-28T04:49:29;7.90;99.90
57088;DHT22;42965;52.846;6.614;2022-09-28T04:52:16;7.80;99.90
57088;DHT22;42965;52.846;6.614;2022-09-28T04:54:42;7.70;99.90
57088;DHT22;42965;52.846;6.614;2022-09-28T04:57:08;7.60;99.90
57088;DHT22;42965;52.846;6.614;2022-09-28T04:59:36;7.60;99.90
57088;DHT22;42965;52.846;6.614;2022-09-28T05:02:03;7.60;99.90
57088;DHT22;42965;52.846;6.614;2022-09-28T05:04:48;7.60;99.90
57088;DHT22;42965;52.846;6.614;2022-09-28T05:07:33;7.50;99.90
57088;DHT22;42965;52.846;6.614;2022-09-28T05:10:02;7.50;99.90
57088;DHT22;42965;52.846;6.614;2022-09-28T05:12:31;7.50;99.90
57088;DHT22;42965;52.846;6.614;2022-09-28T05:14:58;7.60;99.90
57088;DHT22;42965;52.846;6.614;2022-09-28T05:17:25;7.60;99.90
57088;DHT22;42965;52.846;6.614;2022-09-28T05:20:05;7.70;99.90
57088;DHT22;42965;52.846;6.614;2022-09-28T05:22:32;7.70;99.90
57088;DHT22;42965;52.846;6.614;2022-09-28T05:24:58;7.70;99.90
57088;DHT22;42965;52.846;6.614;2022-09-28T05:27:27;7.70;99.90
57088;DHT22;42965;52.846;6.614;2022-09-28T05:30:06;7.70;99.90
57088;DHT22;42965;52.846;6.614;2022-09-28T05:33:11;7.70;99.90
57088;DHT22;42965;52.846;6.614;2022-09-28T05:35:43;7.70;99.90
57088;DHT22;42965;52.846;6.614;2022-09-28T05:38:09;7.70;99.90
57088;DHT22;42965;52.846;6.614;2022-09-28T05:40:35;7.70;99.90
57088;DHT22;42965;52.846;6.614;2022-09-28T05:43:01;7.60;99.90
57088;DHT22;42965;52.846;6.614;2022-09-28T05:45:28;7.60;99.90
57088;DHT22;42965;52.846;6.614;2022-09-28T05:47:54;7.50;99.90
57088;DHT22;42965;52.846;6.614;2022-09-28T05:50:22;7.50;99.90
57088;DHT22;42965;52.846;6.614;2022-09-28T05:52:59;7.70;99.90
57088;DHT22;42965;52.846;6.614;2022-09-28T05:55:25;7.60;99.90
57088;DHT22;42965;52.846;6.614;2022-09-28T05:57:52;7.50;99.90
57088;DHT22;42965;52.846;6.614;2022-09-28T06:00:18;7.50;99.90
57088;DHT22;42965;52.846;6.614;2022-09-28T06:02:58;7.40;99.90
57088;DHT22;42965;52.846;6.614;2022-09-28T06:05:26;7.40;99.90
57088;DHT22;42965;52.846;6.614;2022-09-28T06:07:57;7.40;99.90
57088;DHT22;42965;52.846;6.614;2022-09-28T06:10:25;7.40;99.90
57088;DHT22;42965;52.846;6.614;2022-09-28T06:12:56;7.40;99.90
57088;DHT22;42965;52.846;6.614;2022-09-28T06:15:25;7.50;99.90
57088;DHT22;42965;52.846;6.614;2022-09-28T06:18:03;7.50;99.90
57088;DHT22;42965;52.846;6.614;2022-09-28T06:20:53;7.60;99.90
57088;DHT22;42965;52.846;6.614;2022-09-28T06:23:29;7.50;99.90
57088;DHT22;42965;52.846;6.614;2022-09-28T06:25:58;7.70;99.90
57088;DHT22;42965;52.846;6.614;2022-09-28T06:28:24;7.70;99.90
57088;DHT22;42965;52.846;6.614;2022-09-28T06:30:51;7.80;99.90
57088;DHT22;42965;52.846;6.614;2022-09-28T06:33:18;7.80;99.90
57088;DHT22;42965;52.846;6.614;2022-09-28T06:35:45;7.80;99.90
57088;DHT22;42965;52.846;6.614;2022-09-28T06:38:11;7.80;99.90
57088;DHT22;42965;52.846;6.614;2022-09-28T06:40:37;7.90;99.90
57088;DHT22;42965;52.846;6.614;2022-09-28T06:43:05;7.80;99.90
57088;DHT22;42965;52.846;6.614;2022-09-28T06:46:07;7.90;99.90
57088;DHT22;42965;52.846;6.614;2022-09-28T06:48:49;7.90;99.90
57088;DHT22;42965;52.846;6.614;2022-09-28T06:51:39;8.00;99.90
57088;DHT22;42965;52.846;6.614;2022-09-28T06:54:18;8.10;99.90
57088;DHT22;42965;52.846;6.614;2022-09-28T06:57:02;8.10;99.90
57088;DHT22;42965;52.846;6.614;2022-09-28T06:59:28;8.20;99.90
57088;DHT22;42965;52.846;6.614;2022-09-28T07:01:58;8.20;99.90
57088;DHT22;42965;52.846;6.614;2022-09-28T07:04:45;8.20;99.90
57088;DHT22;42965;52.846;6.614;2022-09-28T07:07:12;8.20;99.90
57088;DHT22;42965;52.846;6.614;2022-09-28T07:09:54;8.20;99.90
57088;DHT22;42965;52.846;6.614;2022-09-28T07:12:41;8.30;99.90
57088;DHT22;42965;52.846;6.614;2022-09-28T07:15:22;8.30;99.90
57088;DHT22;42965;52.846;6.614;2022-09-28T07:17:49;8.30;99.90
57088;DHT22;42965;52.846;6.614;2022-09-28T07:20:22;8.30;99.90
57088;DHT22;42965;52.846;6.614;2022-09-28T07:22:57;8.20;99.90
57088;DHT22;42965;52.846;6.614;2022-09-28T07:25:26;8.30;99.90
57088;DHT22;42965;52.846;6.614;2022-09-28T07:28:07;8.40;99.90
57088;DHT22;42965;52.846;6.614;2022-09-28T07:30:57;8.30;99.90
57088;DHT22;42965;52.846;6.614;2022-09-28T07:33:48;8.30;99.90
57088;DHT22;42965;52.846;6.614;2022-09-28T07:36:23;8.40;99.90
57088;DHT22;42965;52.846;6.614;2022-09-28T07:38:51;8.50;99.90
57088;DHT22;42965;52.846;6.614;2022-09-28T07:41:17;8.60;99.90
57088;DHT22;42965;52.846;6.614;2022-09-28T07:43:51;8.70;99.90
57088;DHT22;42965;52.846;6.614;2022-09-28T07:46:19;8.80;99.90
57088;DHT22;42965;52.846;6.614;2022-09-28T07:48:59;8.80;99.90
57088;DHT22;42965;52.846;6.614;2022-09-28T07:51:51;9.00;99.90
57088;DHT22;42965;52.846;6.614;2022-09-28T07:54:26;9.20;99.90
57088;DHT22;42965;52.846;6.614;2022-09-28T07:57:15;9.20;99.90
57088;DHT22;42965;52.846;6.614;2022-09-28T07:59:58;9.30;99.90
57088;DHT22;42965;52.846;6.614;2022-09-28T08:02:51;9.30;99.90
57088;DHT22;42965;52.846;6.614;2022-09-28T08:05:22;9.20;99.90
57088;DHT22;42965;52.846;6.614;2022-09-28T08:07:48;9.20;99.90
57088;DHT22;42965;52.846;6.614;2022-09-28T08:10:15;9.20;99.90
57088;DHT22;42965;52.846;6.614;2022-09-28T08:13:00;9.20;99.90
57088;DHT22;42965;52.846;6.614;2022-09-28T08:15:48;9.20;99.90
57088;DHT22;42965;52.846;6.614;2022-09-28T08:18:23;9.20;99.90
57088;DHT22;42965;52.846;6.614;2022-09-28T08:20:51;9.30;99.90
57088;DHT22;42965;52.846;6.614;2022-09-28T08:23:36;9.20;99.90
57088;DHT22;42965;52.846;6.614;2022-09-28T08:26:03;9.30;99.90
57088;DHT22;42965;52.846;6.614;2022-09-28T08:28:31;9.30;99.90
57088;DHT22;42965;52.846;6.614;2022-09-28T08:31:01;9.30;99.90
57088;DHT22;42965;52.846;6.614;2022-09-28T08:33:30;9.30;99.90
57088;DHT22;42965;52.846;6.614;2022-09-28T08:36:15;9.50;99.90
57088;DHT22;42965;52.846;6.614;2022-09-28T08:38:59;9.80;99.90
57088;DHT22;42965;52.846;6.614;2022-09-28T08:44:46;10.00;99.90
57088;DHT22;42965;52.846;6.614;2022-09-28T08:47:44;10.20;99.90
57088;DHT22;42965;52.846;6.614;2022-09-28T08:51:06;10.60;99.90
57088;DHT22;42965;52.846;6.614;2022-09-28T08:56:28;11.50;99.90
57088;DHT22;42965;52.846;6.614;2022-09-28T08:58:59;11.90;99.90
57088;DHT22;42965;52.846;6.614;2022-09-28T09:01:32;12.10;99.90
57088;DHT22;42965;52.846;6.614;2022-09-28T09:04:02;12.50;99.90
57088;DHT22;42965;52.846;6.614;2022-09-28T09:18:05;13.70;99.90
57088;DHT22;42965;52.846;6.614;2022-09-28T09:24:01;13.90;99.90
57088;DHT22;42965;52.846;6.614;2022-09-28T09:26:35;14.60;99.90
57088;DHT22;42965;52.846;6.614;2022-09-28T09:29:41;14.50;99.90
57088;DHT22;42965;52.846;6.614;2022-09-28T09:44:49;17.10;99.90
57088;DHT22;42965;52.846;6.614;2022-09-28T09:47:41;17.00;99.90
57088;DHT22;42965;52.846;6.614;2022-09-28T09:50:32;16.80;99.90
57088;DHT22;42965;52.846;6.614;2022-09-28T09:55:46;18.80;99.90
57088;DHT22;42965;52.846;6.614;2022-09-28T09:58:35;18.10;99.90
57088;DHT22;42965;52.846;6.614;2022-09-28T10:01:18;18.20;99.90
57088;DHT22;42965;52.846;6.614;2022-09-28T10:04:17;18.10;99.90
57088;DHT22;42965;52.846;6.614;2022-09-28T10:06:45;17.90;99.90
57088;DHT22;42965;52.846;6.614;2022-09-28T10:09:19;17.40;99.90
57088;DHT22;42965;52.846;6.614;2022-09-28T10:11:48;17.30;99.90
57088;DHT22;42965;52.846;6.614;2022-09-28T10:14:17;16.70;99.90
57088;DHT22;42965;52.846;6.614;2022-09-28T10:16:53;16.40;99.90
57088;DHT22;42965;52.846;6.614;2022-09-28T10:19:41;16.00;99.90
57088;DHT22;42965;52.846;6.614;2022-09-28T10:22:27;15.90;99.90
57088;DHT22;42965;52.846;6.614;2022-09-28T10:24:58;16.40;99.90
57088;DHT22;42965;52.846;6.614;2022-09-28T10:27:29;17.40;99.90
57088;DHT22;42965;52.846;6.614;2022-09-28T10:32:46;18.90;99.90
57088;DHT22;42965;52.846;6.614;2022-09-28T10:38:16;20.10;99.90
57088;DHT22;42965;52.846;6.614;2022-09-28T10:41:00;20.70;99.90
57088;DHT22;42965;52.846;6.614;2022-09-28T10:43:49;21.50;97.60
57088;DHT22;42965;52.846;6.614;2022-09-28T10:46:35;21.90;96.90
57088;DHT22;42965;52.846;6.614;2022-09-28T10:49:17;20.40;97.70
57088;DHT22;42965;52.846;6.614;2022-09-28T10:51:54;19.80;99.90
57088;DHT22;42965;52.846;6.614;2022-09-28T10:54:29;19.10;99.90
57088;DHT22;42965;52.846;6.614;2022-09-28T10:56:57;18.60;99.90
57088;DHT22;42965;52.846;6.614;2022-09-28T11:02:39;17.20;99.90
57088;DHT22;42965;52.846;6.614;2022-09-28T11:05:25;16.80;99.90
57088;DHT22;42965;52.846;6.614;2022-09-28T11:07:56;16.40;99.90
57088;DHT22;42965;52.846;6.614;2022-09-28T11:10:30;16.00;99.90
57088;DHT22;42965;52.846;6.614;2022-09-28T11:13:10;15.80;99.90
57088;DHT22;42965;52.846;6.614;2022-09-28T11:15:41;15.70;99.90
57088;DHT22;42965;52.846;6.614;2022-09-28T11:18:37;15.80;99.90
57088;DHT22;42965;52.846;6.614;2022-09-28T11:21:12;15.70;99.90
57088;DHT22;42965;52.846;6.614;2022-09-28T11:24:00;16.40;99.90
57088;DHT22;42965;52.846;6.614;2022-09-28T11:26:38;16.90;99.90
57088;DHT22;42965;52.846;6.614;2022-09-28T11:32:29;16.70;99.90
57088;DHT22;42965;52.846;6.614;2022-09-28T11:35:24;16.60;99.90
57088;DHT22;42965;52.846;6.614;2022-09-28T11:38:04;16.40;99.90
57088;DHT22;42965;52.846;6.614;2022-09-28T11:41:39;17.40;99.90
57088;DHT22;42965;52.846;6.614;2022-09-28T11:46:51;19.20;99.90
57088;DHT22;42965;52.846;6.614;2022-09-28T11:49:42;18.40;99.90
57088;DHT22;42965;52.846;6.614;2022-09-28T11:52:25;18.30;99.90
57088;DHT22;42965;52.846;6.614;2022-09-28T11:54:58;18.10;99.90
57088;DHT22;42965;52.846;6.614;2022-09-28T11:57:33;17.90;99.90
57088;DHT22;42965;52.846;6.614;2022-09-28T12:00:18;17.40;99.90
57088;DHT22;42965;52.846;6.614;2022-09-28T12:02:58;17.00;99.90
57088;DHT22;42965;52.846;6.614;2022-09-28T12:05:36;16.70;99.90
57088;DHT22;42965;52.846;6.614;2022-09-28T12:08:08;16.50;99.90
57088;DHT22;42965;52.846;6.614;2022-09-28T12:13:48;16.40;99.90
57088;DHT22;42965;52.846;6.614;2022-09-28T12:23:55;17.20;99.90
57088;DHT22;42965;52.846;6.614;2022-09-28T12:26:35;17.80;99.90
57088;DHT22;42965;52.846;6.614;2022-09-28T12:29:39;18.60;99.90
57088;DHT22;42965;52.846;6.614;2022-09-28T12:34:36;21.30;97.30
57088;DHT22;42965;52.846;6.614;2022-09-28T12:43:03;22.70;92.40
57088;DHT22;42965;52.846;6.614;2022-09-28T12:54:04;24.00;69.70
57088;DHT22;42965;52.846;6.614;2022-09-28T12:57:09;23.70;71.70
57088;DHT22;42965;52.846;6.614;2022-09-28T12:59:56;24.40;67.30
57088;DHT22;42965;52.846;6.614;2022-09-28T13:08:49;24.00;64.00
57088;DHT22;42965;52.846;6.614;2022-09-28T13:11:28;23.30;67.00
57088;DHT22;42965;52.846;6.614;2022-09-28T13:14:27;22.40;70.80
57088;DHT22;42965;52.846;6.614;2022-09-28T13:17:12;22.60;70.80
57088;DHT22;42965;52.846;6.614;2022-09-28T13:22:54;22.80;70.80
57088;DHT22;42965;52.846;6.614;2022-09-28T13:25:24;23.10;70.10
57088;DHT22;42965;52.846;6.614;2022-09-28T13:28:01;23.50;69.20
57088;DHT22;42965;52.846;6.614;2022-09-28T13:30:28;24.10;67.10
57088;DHT22;42965;52.846;6.614;2022-09-28T13:32:56;24.60;69.80
57088;DHT22;42965;52.846;6.614;2022-09-28T13:35:23;25.10;67.20
57088;DHT22;42965;52.846;6.614;2022-09-28T13:49:33;23.30;63.60
57088;DHT22;42965;52.846;6.614;2022-09-28T13:52:29;21.50;66.40
57088;DHT22;42965;52.846;6.614;2022-09-28T13:58:21;20.10;75.90
57088;DHT22;42965;52.846;6.614;2022-09-28T14:00:55;19.60;81.00
57088;DHT22;42965;52.846;6.614;2022-09-28T14:03:52;19.00;87.80
57088;DHT22;42965;52.846;6.614;2022-09-28T14:06:30;18.50;96.10
57088;DHT22;42965;52.846;6.614;2022-09-28T14:12:00;17.30;99.90
57088;DHT22;42965;52.846;6.614;2022-09-28T14:14:29;16.70;99.90
57088;DHT22;42965;52.846;6.614;2022-09-28T14:19:52;15.70;99.90
57088;DHT22;42965;52.846;6.614;2022-09-28T14:23:08;15.60;99.90
57088;DHT22;42965;52.846;6.614;2022-09-28T14:25:45;15.10;99.90
57088;DHT22;42965;52.846;6.614;2022-09-28T14:28:27;14.90;99.90
57088;DHT22;42965;52.846;6.614;2022-09-28T14:30:55;14.80;99.90
57088;DHT22;42965;52.846;6.614;2022-09-28T14:33:26;14.60;99.90
57088;DHT22;42965;52.846;6.614;2022-09-28T14:36:05;14.30;99.90
57088;DHT22;42965;52.846;6.614;2022-09-28T14:38:46;14.10;99.90
57088;DHT22;42965;52.846;6.614;2022-09-28T14:41:32;14.00;99.90
57088;DHT22;42965;52.846;6.614;2022-09-28T14:44:04;14.10;99.90
57088;DHT22;42965;52.846;6.614;2022-09-28T14:46:41;14.20;99.90
57088;DHT22;42965;52.846;6.614;2022-09-28T14:57:03;14.10;99.90
57088;DHT22;42965;52.846;6.614;2022-09-28T14:59:39;14.10;99.90
57088;DHT22;42965;52.846;6.614;2022-09-28T15:04:42;13.90;99.90
57088;DHT22;42965;52.846;6.614;2022-09-28T15:07:28;13.80;99.90
57088;DHT22;42965;52.846;6.614;2022-09-28T15:09:57;13.90;99.90
57088;DHT22;42965;52.846;6.614;2022-09-28T15:12:30;13.90;99.90
57088;DHT22;42965;52.846;6.614;2022-09-28T15:15:05;13.90;99.90
57088;DHT22;42965;52.846;6.614;2022-09-28T15:17:38;13.90;99.90
57088;DHT22;42965;52.846;6.614;2022-09-28T15:22:37;13.80;99.90
57088;DHT22;42965;52.846;6.614;2022-09-28T15:25:15;13.80;99.90
57088;DHT22;42965;52.846;6.614;2022-09-28T15:27:49;13.70;99.90
57088;DHT22;42965;52.846;6.614;2022-09-28T15:30:21;13.60;99.90
57088;DHT22;42965;52.846;6.614;2022-09-28T15:32:48;13.60;99.90
57088;DHT22;42965;52.846;6.614;2022-09-28T15:35:20;13.50;99.90
57088;DHT22;42965;52.846;6.614;2022-09-28T15:37:47;13.40;99.90
57088;DHT22;42965;52.846;6.614;2022-09-28T15:40:34;13.30;99.90
57088;DHT22;42965;52.846;6.614;2022-09-28T15:46:16;13.20;99.90
57088;DHT22;42965;52.846;6.614;2022-09-28T15:51:17;13.20;99.90
57088;DHT22;42965;52.846;6.614;2022-09-28T15:54:00;13.10;99.90
57088;DHT22;42965;52.846;6.614;2022-09-28T15:56:29;13.10;99.90
57088;DHT22;42965;52.846;6.614;2022-09-28T15:59:31;13.10;99.90
57088;DHT22;42965;52.846;6.614;2022-09-28T16:15:16;12.80;99.90
57088;DHT22;42965;52.846;6.614;2022-09-28T16:18:00;12.80;99.90
57088;DHT22;42965;52.846;6.614;2022-09-28T16:20:34;12.70;99.90
57088;DHT22;42965;52.846;6.614;2022-09-28T16:23:23;12.60;99.90
57088;DHT22;42965;52.846;6.614;2022-09-28T16:25:57;12.60;99.90
57088;DHT22;42965;52.846;6.614;2022-09-28T16:33:28;12.50;99.90
57088;DHT22;42965;52.846;6.614;2022-09-28T16:36:00;12.50;99.90
57088;DHT22;42965;52.846;6.614;2022-09-28T16:38:27;12.30;99.90
57088;DHT22;42965;52.846;6.614;2022-09-28T16:40:53;12.40;99.90
57088;DHT22;42965;52.846;6.614;2022-09-28T16:43:27;12.30;99.90
57088;DHT22;42965;52.846;6.614;2022-09-28T16:45:56;12.30;99.90
57088;DHT22;42965;52.846;6.614;2022-09-28T16:48:25;12.20;99.90
57088;DHT22;42965;52.846;6.614;2022-09-28T16:50:52;12.30;99.90
57088;DHT22;42965;52.846;6.614;2022-09-28T16:53:18;12.40;99.90
57088;DHT22;42965;52.846;6.614;2022-09-28T16:56:04;12.30;99.90
57088;DHT22;42965;52.846;6.614;2022-09-28T16:58:31;12.30;99.90
57088;DHT22;42965;52.846;6.614;2022-09-28T17:00:58;12.20;99.90
57088;DHT22;42965;52.846;6.614;2022-09-28T17:03:25;12.10;99.90
57088;DHT22;42965;52.846;6.614;2022-09-28T17:05:52;12.00;99.90
57088;DHT22;42965;52.846;6.614;2022-09-28T17:08:20;12.00;99.90
57088;DHT22;42965;52.846;6.614;2022-09-28T17:10:53;11.90;99.90
57088;DHT22;42965;52.846;6.614;2022-09-28T17:13:21;11.90;99.90
57088;DHT22;42965;52.846;6.614;2022-09-28T17:15:48;11.80;99.90
57088;DHT22;42965;52.846;6.614;2022-09-28T17:18:17;11.80;99.90
57088;DHT22;42965;52.846;6.614;2022-09-28T17:20:49;11.60;99.90
57088;DHT22;42965;52.846;6.614;2022-09-28T17:23:15;11.50;99.90
57088;DHT22;42965;52.846;6.614;2022-09-28T17:25:42;11.40;99.90
57088;DHT22;42965;52.846;6.614;2022-09-28T17:28:31;11.30;99.90
57088;DHT22;42965;52.846;6.614;2022-09-28T17:30:57;11.20;99.90
57088;DHT22;42965;52.846;6.614;2022-09-28T17:33:24;11.20;99.90
57088;DHT22;42965;52.846;6.614;2022-09-28T17:35:52;11.10;99.90
57088;DHT22;42965;52.846;6.614;2022-09-28T17:38:22;11.00;99.90
57088;DHT22;42965;52.846;6.614;2022-09-28T17:40:48;10.90;99.90
57088;DHT22;42965;52.846;6.614;2022-09-28T17:43:14;11.00;99.90
57088;DHT22;42965;52.846;6.614;2022-09-28T17:45:40;10.80;99.90
57088;DHT22;42965;52.846;6.614;2022-09-28T17:48:12;10.80;99.90
57088;DHT22;42965;52.846;6.614;2022-09-28T17:50:41;10.70;99.90
57088;DHT22;42965;52.846;6.614;2022-09-28T17:53:08;10.60;99.90
57088;DHT22;42965;52.846;6.614;2022-09-28T17:55:36;10.60;99.90
57088;DHT22;42965;52.846;6.614;2022-09-28T17:58:16;10.60;99.90
57088;DHT22;42965;52.846;6.614;2022-09-28T18:00:46;10.50;99.90
57088;DHT22;42965;52.846;6.614;2022-09-28T18:03:21;10.40;99.90
57088;DHT22;42965;52.846;6.614;2022-09-28T18:05:51;10.50;99.90
57088;DHT22;42965;52.846;6.614;2022-09-28T18:08:23;10.40;99.90
57088;DHT22;42965;52.846;6.614;2022-09-28T18:10:49;10.30;99.90
57088;DHT22;42965;52.846;6.614;2022-09-28T18:13:15;10.30;99.90
57088;DHT22;42965;52.846;6.614;2022-09-28T18:15:41;10.20;99.90
57088;DHT22;42965;52.846;6.614;2022-09-28T18:18:08;10.10;99.90
57088;DHT22;42965;52.846;6.614;2022-09-28T18:20:35;10.10;99.90
57088;DHT22;42965;52.846;6.614;2022-09-28T18:23:02;10.00;99.90
57088;DHT22;42965;52.846;6.614;2022-09-28T18:25:28;9.90;99.90
57088;DHT22;42965;52.846;6.614;2022-09-28T18:27:55;9.80;99.90
57088;DHT22;42965;52.846;6.614;2022-09-28T18:30:23;9.80;99.90
57088;DHT22;42965;52.846;6.614;2022-09-28T18:32:49;9.70;99.90
57088;DHT22;42965;52.846;6.614;2022-09-28T18:35:15;9.70;99.90
57088;DHT22;42965;52.846;6.614;2022-09-28T18:37:42;9.70;99.90
57088;DHT22;42965;52.846;6.614;2022-09-28T18:40:09;9.70;99.90
57088;DHT22;42965;52.846;6.614;2022-09-28T18:42:37;9.70;99.90
57088;DHT22;42965;52.846;6.614;2022-09-28T18:45:06;9.60;99.90
57088;DHT22;42965;52.846;6.614;2022-09-28T18:47:35;9.60;99.90
57088;DHT22;42965;52.846;6.614;2022-09-28T18:50:02;9.50;99.90
57088;DHT22;42965;52.846;6.614;2022-09-28T18:52:29;9.50;99.90
57088;DHT22;42965;52.846;6.614;2022-09-28T18:54:55;9.50;99.90
57088;DHT22;42965;52.846;6.614;2022-09-28T18:57:21;9.50;99.90
57088;DHT22;42965;52.846;6.614;2022-09-28T18:59:47;9.40;99.90
57088;DHT22;42965;52.846;6.614;2022-09-28T19:02:13;9.40;99.90
57088;DHT22;42965;52.846;6.614;2022-09-28T19:04:40;9.40;99.90
57088;DHT22;42965;52.846;6.614;2022-09-28T19:07:07;9.30;99.90
57088;DHT22;42965;52.846;6.614;2022-09-28T19:09:33;9.30;99.90
57088;DHT22;42965;52.846;6.614;2022-09-28T19:12:00;9.30;99.90
57088;DHT22;42965;52.846;6.614;2022-09-28T19:14:26;9.30;99.90